Time;durP1;ratioP1;P1;durP2;ratioP2;P2;SDS_P1;SDS_P2;PMS_P1;PMS_P2;Temp;Humidity;BMP_temperature;BMP_pressure;BME280_temperature;BME280_humidity;BME280_pressure;Samples;Min_cycle;Max_cycle;Signal;HPM_P1;HPM_P2
2023/09/26 00:00:31;;;;;;;18.27;15.45;;;;;;;15.63;100.00;100526.63;5074810;28;20032;-80
2023/09/26 00:02:57;;;;;;;17.17;15.38;;;;;;;15.36;100.00;100486.97;5074591;28;20051;-80
2023/09/26 00:05:23;;;;;;;18.30;15.65;;;;;;;15.41;100.00;100509.41;5074395;28;20029;-80
2023/09/26 00:07:49;;;;;;;16.05;14.35;;;;;;;15.48;100.00;100516.03;5074696;28;20025;-80
2023/09/26 00:10:15;;;;;;;19.58;15.68;;;;;;;15.39;100.00;100498.16;5074785;28;20074;-80
2023/09/26 00:12:41;;;;;;;17.50;15.43;;;;;;;15.51;100.00;100519.44;5074442;28;20036;-80
2023/09/26 00:15:07;;;;;;;18.10;14.55;;;;;;;15.36;100.00;100497.47;5074590;28;20099;-80
2023/09/26 00:17:33;;;;;;;16.65;14.95;;;;;;;15.30;100.00;100488.16;5074507;28;20029;-80
2023/09/26 00:19:58;;;;;;;17.33;15.45;;;;;;;15.46;100.00;100519.66;5074043;28;20104;-80
2023/09/26 00:22:24;;;;;;;19.65;16.00;;;;;;;15.49;100.00;100519.50;5073279;28;20166;-80
2023/09/26 00:24:51;;;;;;;17.85;15.95;;;;;;;15.38;100.00;100512.22;5074317;28;20039;-80
2023/09/26 00:27:17;;;;;;;18.52;16.15;;;;;;;15.36;100.00;100511.44;5073161;28;20024;-80
2023/09/26 00:29:44;;;;;;;18.95;15.95;;;;;;;15.30;100.00;100506.53;5074153;28;20028;-80
2023/09/26 00:32:09;;;;;;;18.95;15.88;;;;;;;15.40;100.00;100517.38;5074286;28;20103;-80
2023/09/26 00:34:35;;;;;;;17.52;15.02;;;;;;;15.33;100.00;100511.59;5074087;28;20549;-80
2023/09/26 00:37:00;;;;;;;16.33;14.57;;;;;;;15.42;100.00;100523.38;5074113;28;20099;-80
2023/09/26 00:39:26;;;;;;;17.90;15.57;;;;;;;15.17;100.00;100484.47;5073969;28;20044;-81
2023/09/26 00:41:51;;;;;;;20.63;16.27;;;;;;;15.31;100.00;100508.19;5073908;28;20025;-80
2023/09/26 00:44:16;;;;;;;18.63;15.80;;;;;;;15.34;100.00;100517.72;5073931;28;20392;-81
2023/09/26 00:46:43;;;;;;;20.38;14.57;;;;;;;15.23;100.00;100492.00;5073688;28;20056;-80
2023/09/26 00:49:10;;;;;;;18.30;15.77;;;;;;;15.45;100.00;100520.59;5073437;28;20028;-79
2023/09/26 00:51:37;;;;;;;19.20;16.55;;;;;;;15.25;100.00;100484.03;5073970;28;20029;-80
2023/09/26 00:54:03;;;;;;;19.13;15.35;;;;;;;15.20;100.00;100479.03;5073781;28;20174;-80
2023/09/26 00:56:29;;;;;;;21.95;15.20;;;;;;;15.23;100.00;100492.84;5074025;28;20021;-80
2023/09/26 00:58:55;;;;;;;18.02;16.02;;;;;;;15.06;100.00;100468.44;5073586;28;20052;-80
2023/09/26 01:01:26;;;;;;;19.77;16.23;;;;;;;15.37;100.00;100517.53;5073677;28;20058;-80
2023/09/26 01:03:53;;;;;;;18.58;16.63;;;;;;;15.25;100.00;100505.88;5073693;28;20101;-80
2023/09/26 01:06:19;;;;;;;20.08;17.75;;;;;;;15.06;100.00;100471.91;5073730;28;20103;-80
2023/09/26 01:08:44;;;;;;;23.63;17.90;;;;;;;15.11;100.00;100482.16;5073480;28;20028;-80
2023/09/26 01:11:10;;;;;;;21.55;17.83;;;;;;;15.25;100.00;100497.16;5073585;28;20027;-81
2023/09/26 01:13:35;;;;;;;20.90;16.17;;;;;;;15.16;100.00;100480.13;5073500;28;20035;-81
2023/09/26 01:16:15;;;;;;;19.08;15.80;;;;;;;15.13;100.00;100470.66;5073147;28;20459;-81
2023/09/26 01:18:41;;;;;;;18.83;16.05;;;;;;;15.15;100.00;100471.41;5073368;28;20067;-81
2023/09/26 01:21:07;;;;;;;21.70;17.50;;;;;;;15.29;100.00;100498.69;5072000;28;20044;-80
2023/09/26 01:23:36;;;;;;;21.40;18.13;;;;;;;15.11;100.00;100471.66;5073586;28;20028;-80
2023/09/26 01:26:01;;;;;;;23.90;18.05;;;;;;;15.30;100.00;100506.53;5072887;28;20112;-81
2023/09/26 01:28:26;;;;;;;20.02;17.50;;;;;;;15.10;100.00;100473.44;5073153;28;20107;-81
2023/09/26 01:30:53;;;;;;;24.75;19.25;;;;;;;15.25;100.00;100498.00;5072762;28;20379;-79
2023/09/26 01:33:21;;;;;;;24.63;18.83;;;;;;;15.24;100.00;100504.19;5073225;28;20028;-81
2023/09/26 01:35:48;;;;;;;24.08;19.90;;;;;;;15.05;100.00;100466.75;5072844;28;20112;-81
2023/09/26 01:38:13;;;;;;;20.42;18.33;;;;;;;15.15;100.00;100476.66;5073010;28;20036;-80
2023/09/26 01:40:40;;;;;;;26.23;22.08;;;;;;;15.17;100.00;100482.69;5072976;28;20052;-81
2023/09/26 01:43:06;;;;;;;24.58;20.17;;;;;;;15.29;100.00;100502.16;5072644;28;20021;-81
2023/09/26 01:45:31;;;;;;;24.60;19.40;;;;;;;15.19;100.00;100479.97;5072736;28;20039;-80
2023/09/26 01:47:57;;;;;;;24.20;19.15;;;;;;;15.33;100.00;100497.63;5071444;28;20074;-81
2023/09/26 01:50:23;;;;;;;25.17;20.05;;;;;;;15.18;100.00;100463.38;5071471;28;20040;-81
2023/09/26 01:52:49;;;;;;;29.02;21.67;;;;;;;15.20;100.00;100482.50;5072724;28;20025;-81
2023/09/26 01:55:22;;;;;;;25.45;21.35;;;;;;;15.23;100.00;100484.97;5072578;28;20369;-81
2023/09/26 01:57:49;;;;;;;25.20;21.13;;;;;;;15.33;100.00;100487.97;5072335;28;20035;-81
2023/09/26 02:00:15;;;;;;;24.85;19.70;;;;;;;15.16;100.00;100465.22;5071805;28;20036;-81
2023/09/26 02:02:44;;;;;;;25.85;20.85;;;;;;;15.23;100.00;100481.50;5072322;28;20434;-81
2023/09/26 02:05:11;;;;;;;28.77;20.75;;;;;;;15.27;100.00;100484.81;5072589;28;20029;-81
2023/09/26 02:07:36;;;;;;;26.38;21.58;;;;;;;15.12;100.00;100471.56;5072470;28;20429;-81
2023/09/26 02:10:05;;;;;;;27.98;20.83;;;;;;;14.97;100.00;100449.63;5072141;28;20043;-81
2023/09/26 02:12:32;;;;;;;30.58;22.08;;;;;;;15.02;100.00;100453.78;5072364;28;20036;-81
2023/09/26 02:14:58;;;;;;;27.00;21.65;;;;;;;14.90;100.00;100431.66;5072624;28;20021;-81
2023/09/26 02:17:23;;;;;;;26.23;21.58;;;;;;;14.76;100.00;100414.00;5072470;28;20538;-81
2023/09/26 02:19:48;;;;;;;25.58;22.17;;;;;;;15.14;100.00;100474.13;5072055;28;20024;-82
2023/09/26 02:22:14;;;;;;;29.92;22.10;;;;;;;15.09;100.00;100465.66;5072197;28;20100;-81
2023/09/26 02:24:39;;;;;;;28.83;20.42;;;;;;;15.10;100.00;100467.34;5072234;28;20056;-81
2023/09/26 02:27:05;;;;;;;27.35;22.00;;;;;;;14.98;100.00;100451.31;5071849;28;20028;-82
2023/09/26 02:29:30;;;;;;;29.38;21.80;;;;;;;15.16;100.00;100477.50;5072310;28;20376;-81
2023/09/26 02:31:55;;;;;;;25.58;20.77;;;;;;;15.10;100.00;100475.22;5070722;28;20348;-82
2023/09/26 02:34:22;;;;;;;27.35;21.58;;;;;;;14.68;100.00;100416.19;5072200;28;20662;-81
2023/09/26 02:36:48;;;;;;;26.70;22.58;;;;;;;14.87;100.00;100442.28;5071859;28;20025;-81
2023/09/26 02:39:13;;;;;;;25.70;20.80;;;;;;;14.88;100.00;100442.22;5071849;28;20031;-81
2023/09/26 02:41:39;;;;;;;24.73;19.67;;;;;;;14.74;100.00;100413.22;5070652;28;20040;-81
2023/09/26 02:44:04;;;;;;;28.23;20.88;;;;;;;15.12;100.00;100476.81;5071776;28;20055;-82
2023/09/26 02:46:29;;;;;;;25.73;21.17;;;;;;;14.85;100.00;100424.03;5072098;28;20056;-81
2023/09/26 02:48:55;;;;;;;27.02;20.85;;;;;;;14.90;100.00;100440.34;5071678;28;20043;-81
2023/09/26 02:51:20;;;;;;;30.02;22.35;;;;;;;14.93;100.00;100460.34;5070500;28;20039;-81
2023/09/26 02:53:45;;;;;;;29.30;22.63;;;;;;;14.94;100.00;100483.03;5071865;28;20032;-81
2023/09/26 02:56:11;;;;;;;30.13;23.13;;;;;;;14.73;100.00;100449.09;5071500;28;20582;-82
2023/09/26 02:58:36;;;;;;;28.00;22.05;;;;;;;14.82;100.00;100471.38;5071999;28;20033;-82
2023/09/26 03:01:03;;;;;;;30.48;23.77;;;;;;;14.69;100.00;100457.19;5070219;28;20039;-81
2023/09/26 03:03:29;;;;;;;31.85;24.23;;;;;;;14.86;100.00;100482.56;5071881;28;20024;-82
2023/09/26 03:05:55;;;;;;;28.30;22.67;;;;;;;14.66;100.00;100441.63;5071579;28;20111;-81
2023/09/26 03:08:20;;;;;;;30.73;23.75;;;;;;;14.84;100.00;100482.66;5071781;28;20472;-81
2023/09/26 03:10:46;;;;;;;29.98;22.45;;;;;;;14.39;100.00;100417.63;5071811;28;20036;-82
2023/09/26 03:13:11;;;;;;;30.63;20.50;;;;;;;14.55;100.00;100433.47;5074578;28;20055;-81
2023/09/26 03:15:36;;;;;;;29.42;21.48;;;;;;;14.44;100.00;100423.47;5075830;28;20028;-81
2023/09/26 03:18:02;;;;;;;24.00;19.73;;;;;;;14.78;100.00;100475.09;5075624;28;20494;-82
2023/09/26 03:20:27;;;;;;;29.85;22.13;;;;;;;14.74;100.00;100468.28;5075609;28;20074;-81
2023/09/26 03:22:53;;;;;;;25.92;19.60;;;;;;;14.82;100.00;100481.03;5075326;28;20585;-82
2023/09/26 03:25:19;;;;;;;27.95;20.63;;;;;;;14.40;100.00;100408.81;5075750;28;20031;-82
2023/09/26 03:27:45;;;;;;;25.40;20.05;;;;;;;14.58;100.00;100439.41;5075752;28;20020;-82
2023/09/26 03:30:14;;;;;;;27.73;22.73;;;;;;;14.70;100.00;100462.34;5075277;28;20438;-81
2023/09/26 03:32:40;;;;;;;27.77;22.25;;;;;;;14.38;100.00;100403.69;5075795;28;20114;-81
2023/09/26 03:35:06;;;;;;;29.33;21.80;;;;;;;14.55;100.00;100431.69;5075184;28;20469;-82
2023/09/26 03:37:32;;;;;;;33.50;22.52;;;;;;;14.67;100.00;100444.19;5075386;28;20111;-82
2023/09/26 03:39:57;;;;;;;28.65;22.60;;;;;;;14.68;100.00;100450.25;5073333;28;20132;-81
2023/09/26 03:42:22;;;;;;;26.95;21.23;;;;;;;14.77;100.00;100473.41;5075431;28;20044;-81
2023/09/26 03:44:48;;;;;;;30.20;23.30;;;;;;;14.74;100.00;100468.28;5075559;28;20029;-81
2023/09/26 03:47:13;;;;;;;31.73;23.38;;;;;;;14.50;100.00;100430.22;5075173;28;20090;-81
2023/09/26 03:49:39;;;;;;;32.70;24.08;;;;;;;14.69;100.00;100467.69;5075130;28;20361;-81
2023/09/26 03:52:04;;;;;;;37.17;24.40;;;;;;;14.29;100.00;100414.63;5074674;28;20026;-82
2023/09/26 03:54:30;;;;;;;32.58;23.38;;;;;;;14.45;100.00;100439.16;5074935;28;20028;-82
2023/09/26 03:56:56;;;;;;;31.40;22.98;;;;;;;14.48;100.00;100446.88;5074859;28;20055;-81
2023/09/26 03:59:21;;;;;;;32.67;23.38;;;;;;;14.65;100.00;100466.16;5075007;28;20028;-82
2023/09/26 04:01:49;;;;;;;33.15;24.15;;;;;;;14.46;100.00;100438.22;5075206;28;20047;-81
2023/09/26 04:04:14;;;;;;;36.47;26.85;;;;;;;14.40;100.00;100424.56;5074550;28;20031;-81
2023/09/26 04:06:40;;;;;;;34.42;24.88;;;;;;;14.69;100.00;100468.53;5074690;28;20020;-82
2023/09/26 04:09:05;;;;;;;34.58;25.05;;;;;;;14.73;100.00;100463.97;5074444;28;20103;-80
2023/09/26 04:11:30;;;;;;;31.88;23.75;;;;;;;14.73;100.00;100472.69;5074837;28;20034;-81
2023/09/26 04:13:56;;;;;;;34.45;25.20;;;;;;;14.54;100.00;100430.00;5074851;28;20054;-81
2023/09/26 04:16:21;;;;;;;34.53;25.00;;;;;;;14.66;100.00;100449.47;5074979;28;20433;-81
2023/09/26 04:18:46;;;;;;;31.13;24.33;;;;;;;14.80;100.00;100470.63;5074596;28;20043;-82
2023/09/26 04:21:12;;;;;;;33.97;26.10;;;;;;;14.59;100.00;100433.22;5074169;28;20029;-81
2023/09/26 04:23:37;;;;;;;36.10;26.67;;;;;;;14.78;100.00;100469.84;5073565;28;20028;-81
2023/09/26 04:26:13;;;;;;;38.67;25.48;;;;;;;14.58;100.00;100431.53;5074278;28;20099;-81
2023/09/26 04:28:39;;;;;;;43.83;28.08;;;;;;;14.55;100.00;100434.31;5074508;28;20036;-81
2023/09/26 04:31:04;;;;;;;38.55;27.50;;;;;;;14.75;100.00;100480.50;5074056;28;20517;-82
2023/09/26 04:33:30;;;;;;;44.35;29.23;;;;;;;14.59;100.00;100455.97;5074042;28;20028;-82
2023/09/26 04:35:56;;;;;;;38.65;27.25;;;;;;;14.50;100.00;100444.19;5073898;28;20025;-82
2023/09/26 04:38:22;;;;;;;36.03;27.10;;;;;;;14.59;100.00;100467.31;5074107;28;20033;-82
2023/09/26 04:40:47;;;;;;;41.60;28.85;;;;;;;14.66;100.00;100475.69;5072705;28;20055;-82
2023/09/26 04:43:12;;;;;;;44.90;28.48;;;;;;;14.49;100.00;100455.56;5074104;28;20067;-81
2023/09/26 04:45:38;;;;;;;42.20;29.25;;;;;;;14.44;100.00;100457.53;5074172;28;20377;-81
2023/09/26 04:48:03;;;;;;;36.88;27.83;;;;;;;14.60;100.00;100476.03;5073877;28;20456;-82
2023/09/26 04:50:30;;;;;;;39.95;28.20;;;;;;;14.58;100.00;100472.63;5073706;28;20039;-82
2023/09/26 04:52:56;;;;;;;34.97;26.42;;;;;;;14.51;100.00;100442.41;5073451;28;20043;-82
2023/09/26 04:55:22;;;;;;;40.35;28.85;;;;;;;14.68;100.00;100479.09;5073711;28;20056;-82
2023/09/26 04:57:48;;;;;;;44.80;28.77;;;;;;;14.64;100.00;100460.06;5073833;28;20048;-82
2023/09/26 05:00:17;;;;;;;38.92;28.20;;;;;;;14.66;100.00;100457.34;5073363;28;20024;-82
2023/09/26 05:02:43;;;;;;;37.50;26.55;;;;;;;14.73;100.00;100466.59;5073727;28;20031;-82
2023/09/26 05:05:08;;;;;;;40.45;29.17;;;;;;;14.76;100.00;100474.31;5073300;28;20456;-82
2023/09/26 05:07:34;;;;;;;40.15;28.00;;;;;;;14.56;100.00;100437.78;5073816;28;20502;-81
2023/09/26 05:10:00;;;;;;;40.42;29.70;;;;;;;14.70;100.00;100472.00;5073236;28;20052;-82
2023/09/26 05:12:25;;;;;;;40.92;29.55;;;;;;;14.76;100.00;100471.72;5073595;28;20056;-82
2023/09/26 05:14:51;;;;;;;43.90;31.42;;;;;;;14.45;100.00;100412.94;5072423;28;20178;-82
2023/09/26 05:17:16;;;;;;;44.13;31.02;;;;;;;14.85;100.00;100475.63;5073205;28;20097;-82
2023/09/26 05:19:41;;;;;;;46.35;33.97;;;;;;;14.63;100.00;100424.28;5073179;28;20042;-82
2023/09/26 05:22:07;;;;;;;46.50;33.33;;;;;;;14.96;100.00;100463.66;5073035;28;20129;-82
2023/09/26 05:24:32;;;;;;;45.05;32.83;;;;;;;15.06;100.00;100473.69;5073410;28;20033;-82
2023/09/26 05:26:57;;;;;;;46.40;34.38;;;;;;;14.99;100.00;100457.41;5073061;28;20527;-82
2023/09/26 05:29:23;;;;;;;44.13;33.42;;;;;;;15.05;100.00;100469.38;5073135;28;20107;-82
2023/09/26 05:31:48;;;;;;;41.58;32.58;;;;;;;14.94;100.00;100443.69;5073331;28;20051;-82
2023/09/26 05:34:13;;;;;;;42.63;30.92;;;;;;;15.07;100.00;100455.22;5072765;28;20438;-82
2023/09/26 05:36:39;;;;;;;42.13;31.33;;;;;;;15.09;100.00;100442.88;5073117;28;20021;-82
2023/09/26 05:39:04;;;;;;;36.63;29.67;;;;;;;15.37;100.00;100470.28;5073161;28;20029;-82
2023/09/26 05:41:30;;;;;;;44.05;32.08;;;;;;;15.52;100.00;100482.59;5072855;28;20048;-82
2023/09/26 05:43:55;;;;;;;42.60;30.58;;;;;;;15.41;100.00;100448.19;5072876;28;20071;-82
2023/09/26 05:46:21;;;;;;;43.05;31.20;;;;;;;15.67;100.00;100476.56;5071257;28;20149;-82
2023/09/26 05:48:46;;;;;;;40.00;31.40;;;;;;;15.88;100.00;100473.66;5072243;28;20036;-82
2023/09/26 05:51:12;;;;;;;39.42;31.00;;;;;;;15.87;100.00;100464.94;5072220;28;20036;-82
2023/09/26 05:53:37;;;;;;;36.17;29.13;;;;;;;16.11;100.00;100483.75;5072731;28;20020;-82
2023/09/26 05:56:03;;;;;;;37.83;31.02;;;;;;;16.17;100.00;100483.38;5072365;28;20451;-82
2023/09/26 05:58:29;;;;;;;40.10;30.88;;;;;;;16.01;100.00;100448.38;5072911;28;20060;-82
2023/09/26 06:00:56;;;;;;;38.10;29.48;;;;;;;16.18;100.00;100465.81;5072397;28;20456;-82
2023/09/26 06:03:21;;;;;;;41.35;31.52;;;;;;;16.16;100.00;100463.28;5072227;28;20584;-82
2023/09/26 06:05:47;;;;;;;43.75;31.90;;;;;;;16.37;100.00;100489.31;5072384;28;20024;-82
2023/09/26 06:08:12;;;;;;;37.88;29.77;;;;;;;16.29;100.00;100447.66;5072364;28;20020;-82
2023/09/26 06:10:38;;;;;;;41.17;32.60;;;;;;;16.44;100.00;100480.97;5072466;28;20108;-82
2023/09/26 06:13:03;;;;;;;37.00;29.77;;;;;;;16.57;100.00;100491.63;5072185;28;20070;-82
2023/09/26 06:15:30;;;;;;;34.42;27.27;;;;;;;16.62;100.00;100455.38;5072018;28;20491;-82
2023/09/26 06:17:57;;;;;;;36.20;29.95;;;;;;;16.75;100.00;100452.06;5072535;28;20345;-81
2023/09/26 06:20:23;;;;;;;41.38;31.35;;;;;;;16.79;100.00;100464.09;5071786;28;20024;-82
2023/09/26 06:22:48;;;;;;;40.20;29.90;;;;;;;17.02;100.00;100484.59;5072712;28;20035;-82
2023/09/26 06:25:13;;;;;;;33.80;27.50;;;;;;;16.78;100.00;100425.59;5072139;28;20028;-82
2023/09/26 06:27:39;;;;;;;39.95;29.30;;;;;;;17.06;100.00;100469.47;5072646;28;20099;-82
2023/09/26 06:30:05;;;;;;;37.17;28.45;;;;;;;17.18;100.00;100482.75;5071966;28;20115;-81
2023/09/26 06:32:33;;;;;;;35.78;27.38;;;;;;;17.32;100.00;100487.19;5072063;28;20480;-82
2023/09/26 06:34:59;;;;;;;36.60;28.08;;;;;;;17.43;100.00;100484.72;5071894;28;20107;-82
2023/09/26 06:37:24;;;;;;;41.55;31.80;;;;;;;17.21;100.00;100452.75;5071965;28;20025;-82
2023/09/26 06:39:50;;;;;;;40.47;30.75;;;;;;;17.37;100.00;100477.22;5072207;28;20071;-82
2023/09/26 06:42:15;;;;;;;44.90;32.15;;;;;;;17.11;100.00;100413.00;5071914;28;20024;-82
2023/09/26 06:44:40;;;;;;;37.95;30.08;;;;;;;17.37;100.00;100450.03;5071930;28;20427;-82
2023/09/26 06:47:06;;;;;;;43.35;32.60;;;;;;;17.55;100.00;100462.03;5071310;28;20093;-82
2023/09/26 06:49:33;;;;;;;41.40;31.30;;;;;;;17.74;100.00;100443.34;5071722;28;20380;-82
2023/09/26 06:51:58;;;;;;;41.22;31.63;;;;;;;18.05;100.00;100480.91;5071957;28;20029;-82
2023/09/26 06:54:23;;;;;;;41.53;32.10;;;;;;;17.94;100.00;100460.50;5071735;28;20028;-82
2023/09/26 06:56:50;;;;;;;40.63;32.25;;;;;;;18.01;100.00;100458.31;5072177;28;20071;-82
2023/09/26 06:59:15;;;;;;;37.20;31.33;;;;;;;18.32;100.00;100483.53;5071435;28;20024;-82
2023/09/26 07:01:41;;;;;;;38.28;30.45;;;;;;;18.54;100.00;100489.09;5071769;28;20028;-82
2023/09/26 07:04:13;;;;;;;37.85;31.33;;;;;;;18.68;100.00;100486.38;5070014;28;20031;-82
2023/09/26 07:06:39;;;;;;;47.08;32.40;;;;;;;18.50;100.00;100463.00;5071970;28;20028;-82
2023/09/26 07:09:06;;;;;;;43.85;32.55;;;;;;;18.69;100.00;100466.97;5071852;28;20434;-82
2023/09/26 07:11:32;;;;;;;41.63;30.98;;;;;;;18.96;100.00;100487.16;5070352;28;20467;-82
2023/09/26 07:13:57;;;;;;;41.13;30.73;;;;;;;19.05;100.00;100481.28;5071570;28;20024;-82
2023/09/26 07:16:23;;;;;;;41.95;31.38;;;;;;;19.09;100.00;100456.34;5071364;28;20025;-82
2023/09/26 07:18:48;;;;;;;41.28;30.92;;;;;;;19.17;100.00;100472.50;5071393;28;20029;-82
2023/09/26 07:21:14;;;;;;;46.47;31.95;;;;;;;19.01;100.00;100478.94;5071486;28;20029;-81
2023/09/26 07:23:39;;;;;;;38.28;30.05;;;;;;;18.88;100.00;100473.66;5071706;28;20032;-82
2023/09/26 07:26:16;;;;;;;43.75;31.70;;;;;;;18.93;100.00;100468.91;5071331;28;20032;-82
2023/09/26 07:28:45;;;;;;;39.15;30.10;;;;;;;18.86;100.00;100457.91;5071407;28;20564;-82
2023/09/26 07:31:13;;;;;;;42.33;31.05;;;;;;;19.13;100.00;100486.88;5071221;28;20029;-82
2023/09/26 07:33:39;;;;;;;45.40;33.80;;;;;;;19.00;100.00;100483.34;5071543;28;20036;-82
2023/09/26 07:36:06;;;;;;;42.85;30.83;;;;;;;19.09;100.00;100493.31;5071369;28;20063;-82
2023/09/26 07:38:32;;;;;;;37.60;30.88;;;;;;;19.08;100.00;100478.41;5070731;28;20398;-82
2023/09/26 07:40:58;;;;;;;33.88;27.30;;;;;;;19.12;100.00;100460.56;5070680;28;20048;-82
2023/09/26 07:43:29;;;;;;;37.92;27.55;;;;;;;19.55;100.00;100498.03;5070940;28;20030;-82
2023/09/26 07:45:57;;;;;;;35.60;26.85;;;;;;;19.58;100.00;100475.81;5071391;28;20024;-82
2023/09/26 07:48:23;;;;;;;36.33;29.17;;;;;;;19.65;100.00;100464.75;5071095;28;20421;-82
2023/09/26 07:50:48;;;;;;;37.97;27.95;;;;;;;19.73;100.00;100460.72;5070926;28;20021;-82
2023/09/26 07:53:14;;;;;;;41.35;28.27;;;;;;;19.78;100.00;100490.31;5070530;28;20016;-82
2023/09/26 07:55:39;;;;;;;33.97;26.58;;;;;;;19.73;100.00;100472.13;5058597;28;20025;-82
2023/09/26 07:58:05;;;;;;;33.15;25.45;;;;;;;20.14;100.00;100492.94;5057437;28;20029;-82
2023/09/26 08:00:30;;;;;;;40.20;30.30;;;;;;;20.21;100.00;100509.19;5072533;28;20388;-82
2023/09/26 08:02:55;;;;;;;32.83;27.48;;;;;;;19.93;100.00;100473.31;5074081;28;20021;-82
2023/09/26 08:05:21;;;;;;;34.83;26.40;;;;;;;20.18;100.00;100509.41;5074384;28;20068;-82
2023/09/26 08:07:48;;;;;;;31.23;25.08;;;;;;;19.93;100.00;100444.22;5074395;28;20032;-82
2023/09/26 08:10:13;;;;;;;37.10;26.70;;;;;;;20.03;100.00;100469.06;5074186;28;20108;-82
2023/09/26 08:12:41;;;;;;;42.63;29.67;;;;;;;19.85;100.00;100446.63;5074059;28;20162;-82
2023/09/26 08:15:07;;;;;;;35.05;26.92;;;;;;;20.19;100.00;100488.16;5074271;28;20467;-82
2023/09/26 08:17:34;;;;;;;38.03;28.25;;;;;;;20.04;100.00;100485.78;5074773;28;20032;-82
2023/09/26 08:20:00;;;;;;;36.55;26.23;;;;;;;20.04;100.00;100483.13;5073906;28;20033;-82
2023/09/26 08:22:25;;;;;;;34.35;27.00;;;;;;;19.76;100.00;100469.25;5069530;28;20032;-82
2023/09/26 08:24:50;;;;;;;38.67;26.92;;;;;;;19.81;100.00;100487.44;5072687;28;20029;-81
2023/09/26 08:27:17;;;;;;;33.33;26.13;;;;;;;19.90;100.00;100486.78;5073709;28;20363;-81
2023/09/26 08:29:44;;;;;;;36.47;27.70;;;;;;;19.73;100.00;100461.56;5073990;28;20036;-81
2023/09/26 08:32:09;;;;;;;35.30;26.77;;;;;;;19.96;100.00;100498.69;5073981;28;20059;-82
2023/09/26 08:34:35;;;;;;;35.47;26.35;;;;;;;19.99;100.00;100478.19;5072619;28;20052;-82
2023/09/26 08:37:01;;;;;;;34.47;26.25;;;;;;;19.90;100.00;100466.47;5072311;28;20030;-81
2023/09/26 08:39:26;;;;;;;36.60;28.67;;;;;;;20.04;100.00;100514.84;5073390;28;20523;-81
2023/09/26 08:41:53;;;;;;;34.80;27.83;;;;;;;19.82;100.00;100474.09;5074018;28;20506;-81
2023/09/26 08:44:18;;;;;;;32.60;25.23;;;;;;;19.93;100.00;100478.59;5072132;28;20021;-81
2023/09/26 08:46:46;;;;;;;34.47;26.00;;;;;;;20.01;100.00;100478.88;5073591;28;20033;-81
2023/09/26 08:49:11;;;;;;;29.15;25.35;;;;;;;20.09;100.00;100489.75;5073597;28;20028;-82
2023/09/26 08:51:37;;;;;;;30.67;25.20;;;;;;;20.23;100.00;100499.34;5073625;28;20467;-81
2023/09/26 08:54:03;;;;;;;30.10;23.42;;;;;;;20.35;100.00;100500.22;5072423;28;20024;-81
2023/09/26 08:56:31;;;;;;;32.75;25.83;;;;;;;20.48;100.00;100503.72;5073595;28;20024;-81
2023/09/26 08:58:58;;;;;;;31.65;25.58;;;;;;;20.39;100.00;100505.22;5074086;28;20028;-81
2023/09/26 09:01:24;;;;;;;33.53;26.23;;;;;;;20.30;100.00;100497.91;5073515;28;20486;-82
2023/09/26 09:03:49;;;;;;;33.63;24.60;;;;;;;20.26;100.00;100490.31;5073859;28;20074;-82
2023/09/26 09:06:15;;;;;;;27.98;23.58;;;;;;;20.42;100.00;100501.47;5073449;28;20551;-81
2023/09/26 09:08:40;;;;;;;34.15;25.45;;;;;;;20.28;100.00;100481.34;5073568;28;20434;-81
2023/09/26 09:11:05;;;;;;;35.28;26.63;;;;;;;20.03;100.00;100453.19;5073093;28;20386;-81
2023/09/26 09:13:33;;;;;;;31.90;24.63;;;;;;;20.29;100.00;100508.63;5073429;28;20624;-81
2023/09/26 09:16:11;;;;;;;33.85;25.83;;;;;;;20.23;100.00;100493.22;5073422;28;20582;-81
2023/09/26 09:18:43;;;;;;;33.15;25.75;;;;;;;20.09;100.00;100483.63;5073511;28;20024;-81
2023/09/26 09:21:21;;;;;;;33.20;25.55;;;;;;;20.17;100.00;100502.44;5073314;28;20085;-81
2023/09/26 09:23:48;;;;;;;32.22;25.52;;;;;;;20.14;100.00;100490.28;5073165;28;20036;-81
2023/09/26 09:26:14;;;;;;;33.97;25.20;;;;;;;19.64;100.00;100436.63;5053355;28;20033;-81
2023/09/26 09:28:39;;;;;;;28.77;23.67;;;;;;;19.75;100.00;100454.34;5070065;28;20082;-81
2023/09/26 09:31:05;;;;;;;30.80;24.73;;;;;;;20.00;100.00;100485.16;5072297;28;20028;-81
2023/09/26 09:33:31;;;;;;;35.58;27.42;;;;;;;20.15;100.00;100499.06;5069740;28;20104;-81
2023/09/26 09:35:56;;;;;;;32.92;26.42;;;;;;;19.89;100.00;100463.94;5062948;28;20460;-82
2023/09/26 09:38:22;;;;;;;32.65;26.42;;;;;;;20.16;100.00;100491.00;5067433;28;20036;-81
2023/09/26 09:40:47;;;;;;;33.95;24.98;;;;;;;20.05;100.00;100475.06;5063804;28;20052;-81
2023/09/26 09:43:13;;;;;;;31.73;24.80;;;;;;;20.13;100.00;100482.44;5069001;28;20033;-81
2023/09/26 09:45:41;;;;;;;26.75;21.08;;;;;;;20.20;100.00;100478.41;5058980;28;20021;-81
2023/09/26 09:48:09;;;;;;;30.30;23.35;;;;;;;20.36;100.00;100491.34;5052717;28;20029;-81
2023/09/26 09:50:39;;;;;;;35.20;26.05;;;;;;;20.30;100.00;100497.91;5057225;28;20119;-81
2023/09/26 09:53:05;;;;;;;31.73;26.77;;;;;;;20.05;100.00;100459.19;5052950;28;20029;-81
2023/09/26 09:55:38;;;;;;;32.78;26.83;;;;;;;20.26;100.00;100495.63;5052577;28;20060;-81
2023/09/26 09:58:08;;;;;;;32.15;25.60;;;;;;;19.86;100.00;100435.91;5062154;28;20051;-81
2023/09/26 10:00:37;;;;;;;31.88;23.83;;;;;;;20.35;100.00;100492.28;5061800;28;20033;-81
2023/09/26 10:03:04;;;;;;;29.05;21.42;;;;;;;20.10;100.00;100456.22;5060402;28;20021;-81
2023/09/26 10:05:30;;;;;;;29.45;22.60;;;;;;;20.16;100.00;100455.78;5058759;28;20056;-81
2023/09/26 10:07:58;;;;;;;36.33;25.80;;;;;;;20.34;100.00;100477.38;5052671;28;20029;-81
2023/09/26 10:10:25;;;;;;;32.85;25.33;;;;;;;20.09;100.00;100450.09;5052316;28;20025;-81
2023/09/26 10:12:51;;;;;;;28.45;24.23;;;;;;;20.26;100.00;100474.47;5052789;28;20639;-81
2023/09/26 10:15:17;;;;;;;29.92;23.45;;;;;;;20.09;100.00;100438.66;5052156;28;20116;-81
2023/09/26 10:17:48;;;;;;;30.08;24.50;;;;;;;20.31;100.00;100453.78;5052488;28;20111;-81
2023/09/26 10:20:14;;;;;;;29.67;23.42;;;;;;;20.51;100.00;100468.22;5052297;28;20036;-81
2023/09/26 10:22:41;;;;;;;31.00;24.17;;;;;;;20.41;100.00;100454.81;5051790;28;20017;-81
2023/09/26 10:25:08;;;;;;;28.27;23.88;;;;;;;20.33;100.00;100447.44;5052276;28;20470;-81
2023/09/26 10:27:34;;;;;;;28.45;24.13;;;;;;;20.19;100.00;100482.84;5052001;28;20032;-81
2023/09/26 10:30:03;;;;;;;29.85;24.80;;;;;;;20.10;100.00;100467.66;5052063;28;20407;-81
2023/09/26 10:32:33;;;;;;;33.45;26.08;;;;;;;20.01;100.00;100448.97;5051683;28;20369;-81
2023/09/26 10:34:59;;;;;;;30.77;25.80;;;;;;;20.00;100.00;100463.16;5052173;28;20031;-81
2023/09/26 10:37:28;;;;;;;36.25;30.27;;;;;;;19.62;100.00;100414.75;5051812;28;20021;-81
2023/09/26 10:39:53;;;;;;;37.00;29.73;;;;;;;19.50;100.00;100404.19;5051759;28;20408;-81
2023/09/26 10:42:24;;;;;;;35.50;28.55;;;;;;;19.60;100.00;100439.56;5051769;28;20049;-81
2023/09/26 10:44:50;;;;;;;36.00;28.70;;;;;;;19.83;100.00;100430.00;5051760;28;20084;-81
2023/09/26 10:47:21;;;;;;;34.28;28.85;;;;;;;20.04;100.00;100444.31;5051907;28;20090;-81
2023/09/26 10:49:46;;;;;;;33.75;26.65;;;;;;;20.08;100.00;100429.91;5051949;28;20543;-81
2023/09/26 10:52:13;;;;;;;36.60;28.75;;;;;;;20.44;100.00;100458.06;5051857;28;20111;-81
2023/09/26 10:54:41;;;;;;;33.17;26.60;;;;;;;20.28;100.00;100425.78;5051591;28;20033;-81
2023/09/26 10:57:07;;;;;;;36.45;28.70;;;;;;;19.99;100.00;100425.28;5050823;28;20423;-81